Time;durP1;ratioP1;P1;durP2;ratioP2;P2;SDS_P1;SDS_P2;PMS_P1;PMS_P2;Temp;Humidity;BMP_temperature;BMP_pressure;BME280_temperature;BME280_humidity;BME280_pressure;Samples;Min_cycle;Max_cycle;Signal;HPM_P1;HPM_P2
2022/07/16 00:02:19;;;;;;;4.90;3.28;;;18.60;57.10;;;;;;5113721;28;20112;-72
2022/07/16 00:04:45;;;;;;;4.10;3.38;;;18.50;57.70;;;;;;5113677;28;20028;-72
2022/07/16 00:07:10;;;;;;;5.95;3.53;;;18.50;57.70;;;;;;5113637;28;20073;-72
2022/07/16 00:09:36;;;;;;;6.32;3.45;;;18.40;57.40;;;;;;5113638;28;20024;-72
2022/07/16 00:12:02;;;;;;;6.07;3.75;;;18.30;57.50;;;;;;5113558;28;20074;-71
2022/07/16 00:14:28;;;;;;;6.55;3.70;;;18.20;57.70;;;;;;5095707;28;20028;-71
2022/07/16 00:16:53;;;;;;;7.32;3.70;;;18.10;58.20;;;;;;5113542;28;20023;-72
2022/07/16 00:19:20;;;;;;;7.40;3.53;;;18.00;58.20;;;;;;5113502;28;20032;-72
2022/07/16 00:21:50;;;;;;;5.43;3.53;;;18.00;58.70;;;;;;5113398;28;20040;-72
2022/07/16 00:24:17;;;;;;;5.22;3.70;;;17.90;58.90;;;;;;5113672;28;20105;-72
2022/07/16 00:26:43;;;;;;;6.03;3.88;;;17.90;59.10;;;;;;5095563;28;20024;-71
2022/07/16 00:29:09;;;;;;;5.10;3.47;;;18.00;59.20;;;;;;5113364;28;20103;-72
2022/07/16 00:31:35;;;;;;;6.85;4.20;;;18.00;59.00;;;;;;5095615;28;20058;-72
2022/07/16 00:34:01;;;;;;;7.53;3.92;;;18.00;59.10;;;;;;5113392;28;20027;-72
2022/07/16 00:36:27;;;;;;;6.07;3.90;;;18.00;59.90;;;;;;5078763;28;20025;-72
2022/07/16 00:38:52;;;;;;;8.43;4.32;;;18.00;58.90;;;;;;5113329;28;20036;-71
2022/07/16 00:41:18;;;;;;;5.72;3.85;;;18.00;59.00;;;;;;5095516;28;20043;-72
2022/07/16 00:43:56;;;;;;;4.88;3.75;;;17.90;60.00;;;;;;5113233;28;20036;-71
2022/07/16 00:46:21;;;;;;;6.68;3.63;;;17.90;59.20;;;;;;5114958;28;20016;-71
2022/07/16 00:48:47;;;;;;;7.80;4.10;;;17.90;59.10;;;;;;5099362;28;20027;-72
2022/07/16 00:51:15;;;;;;;6.93;4.35;;;17.90;60.10;;;;;;5117264;28;20020;-72
2022/07/16 00:53:42;;;;;;;6.63;3.88;;;17.90;59.10;;;;;;5117202;28;20048;-72
2022/07/16 00:56:13;;;;;;;6.35;3.95;;;17.90;59.20;;;;;;5099204;28;20024;-71
2022/07/16 00:58:40;;;;;;;6.60;3.88;;;17.90;59.40;;;;;;5117151;28;20077;-72
2022/07/16 01:01:07;;;;;;;5.78;3.55;;;17.90;59.50;;;;;;5116886;28;20044;-72
2022/07/16 01:03:34;;;;;;;5.25;3.83;;;17.90;59.60;;;;;;5116979;28;20035;-72
2022/07/16 01:06:01;;;;;;;6.10;3.55;;;17.90;60.00;;;;;;5099054;28;20013;-72
2022/07/16 01:08:27;;;;;;;6.53;3.70;;;17.90;59.90;;;;;;5116930;28;20028;-72
2022/07/16 01:10:54;;;;;;;7.25;3.63;;;17.90;59.70;;;;;;5116917;28;20024;-72
2022/07/16 01:13:21;;;;;;;6.13;3.65;;;18.00;59.80;;;;;;5116874;28;20016;-72
2022/07/16 01:15:47;;;;;;;6.53;3.70;;;18.00;59.80;;;;;;5098824;28;20049;-72
2022/07/16 01:18:12;;;;;;;5.85;3.33;;;18.00;59.70;;;;;;5098942;28;20472;-72
2022/07/16 01:20:38;;;;;;;5.18;3.78;;;18.10;59.70;;;;;;5116697;28;20081;-72
2022/07/16 01:23:05;;;;;;;6.63;3.38;;;18.10;59.80;;;;;;5098604;28;20028;-72
2022/07/16 01:25:31;;;;;;;5.70;3.22;;;18.10;59.90;;;;;;5116620;28;20020;-72
2022/07/16 01:27:56;;;;;;;6.22;3.30;;;18.00;60.10;;;;;;5116491;28;20027;-72
2022/07/16 01:30:22;;;;;;;6.85;3.70;;;18.10;60.50;;;;;;5098697;28;20050;-72
2022/07/16 01:32:48;;;;;;;4.97;3.33;;;18.00;60.40;;;;;;5116615;28;20035;-72
2022/07/16 01:35:13;;;;;;;5.47;3.35;;;18.10;60.50;;;;;;5116422;28;20039;-72
2022/07/16 01:37:39;;;;;;;5.80;3.40;;;18.10;60.80;;;;;;5116395;28;20080;-72
2022/07/16 01:40:05;;;;;;;5.93;3.60;;;18.00;62.40;;;;;;5098514;28;20471;-72
2022/07/16 01:42:31;;;;;;;6.07;3.90;;;18.00;62.20;;;;;;5116213;28;20035;-72
2022/07/16 01:44:57;;;;;;;4.97;3.10;;;17.90;62.00;;;;;;5116227;28;20028;-72
2022/07/16 01:47:22;;;;;;;9.32;4.07;;;18.00;61.90;;;;;;5116194;28;20025;-72
2022/07/16 01:49:48;;;;;;;5.38;4.20;;;18.00;61.80;;;;;;5116130;28;20095;-72
2022/07/16 01:52:19;;;;;;;5.60;3.80;;;18.00;62.00;;;;;;5116080;28;20039;-72
2022/07/16 01:54:47;;;;;;;7.70;3.70;;;18.00;61.90;;;;;;5116100;28;20024;-72
2022/07/16 01:57:13;;;;;;;8.98;3.90;;;17.90;61.70;;;;;;5115035;28;20028;-72
2022/07/16 01:59:39;;;;;;;7.38;4.07;;;17.90;61.70;;;;;;5115739;28;20028;-72
2022/07/16 02:02:05;;;;;;;7.15;3.88;;;17.90;61.80;;;;;;5097863;28;20475;-72
2022/07/16 02:04:33;;;;;;;6.95;3.70;;;17.90;61.90;;;;;;5115823;28;20044;-72
2022/07/16 02:06:58;;;;;;;7.00;3.78;;;17.90;61.80;;;;;;5115832;28;20024;-72
2022/07/16 02:09:24;;;;;;;6.13;3.95;;;17.90;61.90;;;;;;5097893;28;20070;-72
2022/07/16 02:11:50;;;;;;;7.00;3.85;;;18.00;61.90;;;;;;5115697;28;20036;-72
2022/07/16 02:14:16;;;;;;;5.05;3.60;;;18.00;61.80;;;;;;5115687;28;20027;-72
2022/07/16 02:16:41;;;;;;;6.55;3.78;;;18.00;61.80;;;;;;5115631;28;20050;-72
2022/07/16 02:19:07;;;;;;;7.15;3.65;;;17.90;62.00;;;;;;5115532;28;20030;-72
2022/07/16 02:21:33;;;;;;;8.15;4.00;;;17.90;62.80;;;;;;5115457;28;20062;-72
2022/07/16 02:23:59;;;;;;;6.45;4.03;;;17.90;62.00;;;;;;5115471;28;20028;-72
2022/07/16 02:26:25;;;;;;;7.75;4.10;;;17.90;62.10;;;;;;5115427;28;20016;-72
2022/07/16 02:28:51;;;;;;;8.00;4.07;;;17.90;62.40;;;;;;5115334;28;20031;-72
2022/07/16 02:31:16;;;;;;;5.65;3.90;;;17.90;62.10;;;;;;5115346;28;20083;-72
2022/07/16 02:33:42;;;;;;;5.72;3.58;;;17.90;62.20;;;;;;5097505;28;20040;-72
2022/07/16 02:36:08;;;;;;;8.10;3.72;;;17.90;62.40;;;;;;5115241;28;20020;-72
2022/07/16 02:38:34;;;;;;;6.85;3.65;;;17.90;62.40;;;;;;5115178;28;20410;-72
2022/07/16 02:40:59;;;;;;;6.70;3.70;;;17.90;62.20;;;;;;5115280;28;20038;-72
2022/07/16 02:43:25;;;;;;;7.97;3.80;;;17.90;62.40;;;;;;5115049;28;20048;-72
2022/07/16 02:45:52;;;;;;;8.25;3.90;;;18.00;62.40;;;;;;5097122;28;20036;-72
2022/07/16 02:48:17;;;;;;;5.53;3.67;;;18.00;62.30;;;;;;5115206;28;20548;-72
2022/07/16 02:50:43;;;;;;;6.57;3.80;;;18.00;62.30;;;;;;5114981;28;20024;-72
2022/07/16 02:53:09;;;;;;;6.75;4.30;;;18.00;62.40;;;;;;5096927;28;20031;-72
2022/07/16 02:55:34;;;;;;;7.85;3.75;;;18.00;63.30;;;;;;5097165;28;20386;-72
2022/07/16 02:58:00;;;;;;;5.65;3.92;;;18.00;62.50;;;;;;5114817;28;20032;-72
2022/07/16 03:00:28;;;;;;;6.20;3.50;;;18.00;62.70;;;;;;5079924;28;20068;-72
2022/07/16 03:02:53;;;;;;;6.40;3.70;;;18.00;62.40;;;;;;5114694;28;20039;-72
2022/07/16 03:05:19;;;;;;;6.47;4.15;;;18.00;62.50;;;;;;5097013;28;20020;-72
2022/07/16 03:07:45;;;;;;;5.30;3.70;;;18.00;62.70;;;;;;5114654;28;20463;-72
2022/07/16 03:10:12;;;;;;;7.28;4.25;;;18.00;62.60;;;;;;5114429;28;20016;-72
2022/07/16 03:12:38;;;;;;;4.97;4.00;;;18.00;62.60;;;;;;5114580;28;20024;-72
2022/07/16 03:15:04;;;;;;;6.57;3.85;;;18.00;62.50;;;;;;5114532;28;20135;-72
2022/07/16 03:17:30;;;;;;;9.48;3.88;;;18.10;62.50;;;;;;5114450;28;20025;-72
2022/07/16 03:19:55;;;;;;;6.78;3.88;;;18.00;62.40;;;;;;5114415;28;20096;-72
2022/07/16 03:22:21;;;;;;;5.72;4.22;;;18.10;62.30;;;;;;5114309;28;20028;-72
2022/07/16 03:24:47;;;;;;;5.88;3.60;;;18.10;62.40;;;;;;5114326;28;20020;-72
2022/07/16 03:27:13;;;;;;;8.68;3.78;;;18.10;62.30;;;;;;5114447;28;20454;-72
2022/07/16 03:29:39;;;;;;;6.38;3.95;;;18.20;62.20;;;;;;5114178;28;20024;-72
2022/07/16 03:32:05;;;;;;;7.20;3.97;;;18.20;62.00;;;;;;5114212;28;20020;-72
2022/07/16 03:34:32;;;;;;;6.22;3.80;;;18.30;62.00;;;;;;5114178;28;20533;-72
2022/07/16 03:36:58;;;;;;;6.00;3.90;;;18.30;61.90;;;;;;5114122;28;20084;-72
2022/07/16 03:39:24;;;;;;;7.32;3.97;;;18.40;61.80;;;;;;5114061;28;20028;-72
2022/07/16 03:41:50;;;;;;;6.85;3.58;;;18.40;61.80;;;;;;5113958;28;20032;-72
2022/07/16 03:44:15;;;;;;;6.05;4.20;;;18.40;61.70;;;;;;5114196;28;20024;-72
2022/07/16 03:46:41;;;;;;;6.95;3.63;;;18.40;61.80;;;;;;5113995;28;20038;-72
2022/07/16 03:49:07;;;;;;;6.85;4.05;;;18.40;61.80;;;;;;5113925;28;20080;-72
2022/07/16 03:51:33;;;;;;;17.30;4.10;;;18.40;62.00;;;;;;5079234;28;20035;-72
2022/07/16 03:53:59;;;;;;;5.07;3.40;;;18.40;62.00;;;;;;5113837;28;20017;-72
2022/07/16 03:56:25;;;;;;;6.32;3.80;;;18.40;62.90;;;;;;5096040;28;20050;-72
2022/07/16 03:58:51;;;;;;;7.22;4.00;;;18.30;62.20;;;;;;5095938;28;20024;-72
2022/07/16 04:01:16;;;;;;;6.85;3.63;;;18.30;62.10;;;;;;5095785;28;20058;-72
2022/07/16 04:03:42;;;;;;;5.95;3.67;;;18.40;62.10;;;;;;5113622;28;20028;-72
2022/07/16 04:06:08;;;;;;;6.57;4.18;;;18.30;62.30;;;;;;5113663;28;20062;-72
2022/07/16 04:08:33;;;;;;;6.60;3.60;;;18.30;62.40;;;;;;5113624;28;20035;-72
2022/07/16 04:11:00;;;;;;;5.35;3.35;;;18.30;62.50;;;;;;5113646;28;20024;-72
2022/07/16 04:13:26;;;;;;;5.60;3.67;;;18.30;62.70;;;;;;5095754;28;20109;-72
2022/07/16 04:15:51;;;;;;;6.05;3.50;;;18.30;62.90;;;;;;5113542;28;20027;-72
2022/07/16 04:18:17;;;;;;;6.00;3.50;;;18.20;63.10;;;;;;5113535;28;20032;-72
2022/07/16 04:20:43;;;;;;;6.25;3.55;;;18.20;63.20;;;;;;5112980;28;20032;-72
2022/07/16 04:23:09;;;;;;;5.25;3.30;;;18.20;63.20;;;;;;5113392;28;20054;-71
2022/07/16 04:25:34;;;;;;;4.80;3.33;;;18.20;63.30;;;;;;5113609;28;20032;-72
2022/07/16 04:28:00;;;;;;;4.95;3.53;;;18.20;63.30;;;;;;5113372;28;20035;-72
2022/07/16 04:30:26;;;;;;;5.43;3.53;;;18.20;63.70;;;;;;5113421;28;20036;-72
2022/07/16 04:32:51;;;;;;;8.00;3.67;;;18.20;63.70;;;;;;5113543;28;20036;-72
2022/07/16 04:35:17;;;;;;;8.27;3.67;;;18.20;63.90;;;;;;5113386;28;20031;-72
2022/07/16 04:37:42;;;;;;;5.78;3.90;;;18.10;64.40;;;;;;5095461;28;20031;-72
2022/07/16 04:40:10;;;;;;;6.57;4.00;;;18.10;64.80;;;;;;5113340;28;20024;-71
2022/07/16 04:42:40;;;;;;;6.00;3.70;;;18.00;65.10;;;;;;5113243;28;20024;-71
2022/07/16 04:45:07;;;;;;;6.93;3.60;;;18.00;65.20;;;;;;5113337;28;20035;-71
2022/07/16 04:47:33;;;;;;;6.68;4.03;;;18.00;65.80;;;;;;5113214;28;20021;-72
2022/07/16 04:49:58;;;;;;;6.32;4.03;;;18.00;65.80;;;;;;5078665;28;20031;-71
2022/07/16 04:52:24;;;;;;;5.88;4.20;;;18.00;66.00;;;;;;5095288;28;20028;-72
2022/07/16 04:54:50;;;;;;;8.70;4.13;;;18.00;66.30;;;;;;5095393;28;20031;-71
2022/07/16 04:57:15;;;;;;;8.25;4.43;;;18.00;66.50;;;;;;5113168;28;20039;-72
2022/07/16 04:59:41;;;;;;;9.35;4.47;;;18.10;66.30;;;;;;5095432;28;20039;-71
2022/07/16 05:04:51;;;;;;;8.95;4.65;;;18.30;66.30;;;;;;5113366;28;20036;-72
2022/07/16 05:07:16;;;;;;;6.25;3.92;;;18.30;66.50;;;;;;5113104;28;20028;-72
2022/07/16 05:09:42;;;;;;;10.40;4.63;;;18.30;67.20;;;;;;5113064;28;20037;-72
2022/07/16 05:12:08;;;;;;;7.40;3.97;;;18.40;67.40;;;;;;5095269;28;20036;-71
2022/07/16 05:14:33;;;;;;;6.88;3.95;;;18.50;68.50;;;;;;5113165;28;20028;-72
2022/07/16 05:16:59;;;;;;;6.63;4.20;;;18.50;67.90;;;;;;5095119;28;20032;-72
2022/07/16 05:19:25;;;;;;;6.45;3.63;;;18.60;68.40;;;;;;5113027;28;20040;-71
2022/07/16 05:21:50;;;;;;;6.07;4.00;;;18.60;68.50;;;;;;5112885;28;20093;-72
2022/07/16 05:24:16;;;;;;;8.30;3.95;;;18.60;69.30;;;;;;5112939;28;20034;-72
2022/07/16 05:26:43;;;;;;;5.57;3.72;;;18.70;69.40;;;;;;5112923;28;20103;-71
2022/07/16 05:29:08;;;;;;;8.93;3.85;;;18.70;69.80;;;;;;5095041;28;20028;-72
2022/07/16 05:31:34;;;;;;;5.80;3.50;;;18.70;70.30;;;;;;5112866;28;20032;-72
2022/07/16 05:33:59;;;;;;;5.15;3.50;;;18.80;70.40;;;;;;5115289;28;20031;-71
2022/07/16 05:36:25;;;;;;;6.55;3.70;;;18.80;70.60;;;;;;5116459;28;20146;-71
2022/07/16 05:38:51;;;;;;;6.68;3.40;;;18.80;70.70;;;;;;5116384;28;20024;-72
2022/07/16 05:41:17;;;;;;;4.50;3.22;;;18.80;71.70;;;;;;5116329;28;20032;-71
2022/07/16 05:43:42;;;;;;;6.72;3.20;;;18.80;70.50;;;;;;5116255;28;20036;-72
2022/07/16 05:46:08;;;;;;;6.43;3.53;;;18.80;70.50;;;;;;5116221;28;20039;-72
2022/07/16 05:48:33;;;;;;;6.47;3.55;;;18.90;70.40;;;;;;5098483;28;20020;-71
2022/07/16 05:50:59;;;;;;;8.57;3.47;;;18.90;70.50;;;;;;5116162;28;20115;-72
2022/07/16 05:53:25;;;;;;;6.18;3.20;;;18.90;70.50;;;;;;5116135;28;20087;-72
2022/07/16 05:55:50;;;;;;;5.72;3.35;;;18.90;70.70;;;;;;5116071;28;20028;-71
2022/07/16 05:58:16;;;;;;;7.15;3.78;;;19.00;70.70;;;;;;5098243;28;20051;-72
2022/07/16 06:00:42;;;;;;;6.20;2.92;;;19.00;71.00;;;;;;5115792;28;20048;-72
2022/07/16 06:03:07;;;;;;;6.32;3.30;;;19.00;71.10;;;;;;5115880;28;20036;-72
2022/07/16 06:05:34;;;;;;;5.28;2.85;;;19.00;70.90;;;;;;5098115;28;20040;-72
2022/07/16 06:08:00;;;;;;;5.82;2.60;;;19.00;70.90;;;;;;5097921;28;20024;-72
2022/07/16 06:10:25;;;;;;;5.05;2.40;;;19.10;70.80;;;;;;5115804;28;20023;-72
2022/07/16 06:12:51;;;;;;;5.22;2.00;;;19.10;70.50;;;;;;5115749;28;20036;-71
2022/07/16 06:15:16;;;;;;;4.53;2.38;;;19.10;70.50;;;;;;5115668;28;20043;-71
2022/07/16 06:17:42;;;;;;;6.40;2.33;;;19.10;70.60;;;;;;5097914;28;20051;-72
2022/07/16 06:20:09;;;;;;;5.05;2.20;;;19.20;70.50;;;;;;5115562;28;20046;-71
2022/07/16 06:22:35;;;;;;;4.95;2.00;;;19.20;70.10;;;;;;5115458;28;20027;-71
2022/07/16 06:25:01;;;;;;;3.70;1.73;;;19.30;69.90;;;;;;5115519;28;20080;-71
2022/07/16 06:27:27;;;;;;;3.42;1.85;;;19.30;69.70;;;;;;5115470;28;20028;-71
2022/07/16 06:29:53;;;;;;;5.22;1.95;;;19.40;69.40;;;;;;5115370;28;20028;-72
2022/07/16 06:32:19;;;;;;;5.63;1.73;;;19.40;69.20;;;;;;5115357;28;20027;-71
2022/07/16 06:34:44;;;;;;;3.13;1.50;;;19.50;69.10;;;;;;5115290;28;20111;-71
2022/07/16 06:37:10;;;;;;;2.47;1.50;;;19.50;68.90;;;;;;5115247;28;20030;-71
2022/07/16 06:39:36;;;;;;;4.13;1.70;;;19.50;68.50;;;;;;5115210;28;20055;-71
2022/07/16 06:42:01;;;;;;;3.63;1.33;;;19.50;68.10;;;;;;5097363;28;20024;-71
2022/07/16 06:44:27;;;;;;;3.38;1.40;;;19.60;67.50;;;;;;5114635;28;20044;-70
2022/07/16 06:46:53;;;;;;;2.63;1.20;;;19.60;67.40;;;;;;5114942;28;20406;-70
2022/07/16 06:49:19;;;;;;;4.50;1.50;;;19.70;67.40;;;;;;5115016;28;20024;-70
2022/07/16 06:51:45;;;;;;;3.15;1.42;;;19.70;67.20;;;;;;5114995;28;20091;-71
2022/07/16 06:54:11;;;;;;;3.67;1.20;;;19.70;67.00;;;;;;5097200;28;20470;-70
2022/07/16 06:56:36;;;;;;;2.08;1.20;;;19.70;66.90;;;;;;5097101;28;20119;-71
2022/07/16 06:59:02;;;;;;;1.67;1.10;;;19.70;66.10;;;;;;5096966;28;20020;-72
2022/07/16 07:01:28;;;;;;;1.75;1.08;;;19.80;65.70;;;;;;5114606;28;20040;-72
2022/07/16 07:03:54;;;;;;;2.40;1.00;;;19.80;65.10;;;;;;5114683;28;20023;-71
2022/07/16 07:06:20;;;;;;;2.13;0.93;;;19.80;64.60;;;;;;5114680;28;20161;-71
2022/07/16 07:08:45;;;;;;;2.63;1.20;;;19.90;64.50;;;;;;5114667;28;20027;-71
2022/07/16 07:11:11;;;;;;;3.17;1.10;;;19.90;64.00;;;;;;5096654;28;20039;-71
2022/07/16 07:13:38;;;;;;;2.42;1.10;;;19.90;63.90;;;;;;5096625;28;20025;-72
2022/07/16 07:16:04;;;;;;;2.15;0.90;;;20.00;63.10;;;;;;5114626;28;20069;-72
2022/07/16 07:18:30;;;;;;;2.10;0.90;;;19.90;62.60;;;;;;5114486;28;20034;-71
2022/07/16 07:20:56;;;;;;;3.50;1.15;;;19.90;62.50;;;;;;5096675;28;20118;-71
2022/07/16 07:23:22;;;;;;;3.33;1.13;;;19.90;62.60;;;;;;5114281;28;20058;-71
2022/07/16 07:25:47;;;;;;;3.78;1.40;;;19.90;62.60;;;;;;5114352;28;20028;-72
2022/07/16 07:28:13;;;;;;;4.80;1.00;;;20.00;62.60;;;;;;5114240;28;20051;-72
2022/07/16 07:30:39;;;;;;;2.50;1.10;;;20.00;62.90;;;;;;5114211;28;20020;-72
2022/07/16 07:33:05;;;;;;;4.30;1.17;;;20.00;62.90;;;;;;5096213;28;20050;-72
2022/07/16 07:35:30;;;;;;;3.78;1.02;;;20.10;63.00;;;;;;5114177;28;20028;-72
2022/07/16 07:37:56;;;;;;;2.28;1.17;;;20.10;62.60;;;;;;5114139;28;20056;-71
2022/07/16 07:40:22;;;;;;;2.47;1.15;;;20.20;62.30;;;;;;5114094;28;20035;-72
2022/07/16 07:42:47;;;;;;;1.67;1.00;;;20.20;61.80;;;;;;5113934;28;20115;-72
2022/07/16 07:45:13;;;;;;;3.67;1.30;;;20.20;61.40;;;;;;5114027;28;20024;-72
2022/07/16 07:47:38;;;;;;;4.30;1.27;;;20.30;61.50;;;;;;5113950;28;20028;-71
2022/07/16 07:50:06;;;;;;;3.83;1.20;;;20.30;61.30;;;;;;5113959;28;20024;-72
2022/07/16 07:52:32;;;;;;;3.17;1.00;;;20.30;61.30;;;;;;5113813;28;20046;-72
2022/07/16 07:54:58;;;;;;;5.43;1.48;;;20.40;61.00;;;;;;5113463;28;20032;-72
2022/07/16 07:57:24;;;;;;;2.58;1.15;;;20.50;60.80;;;;;;5095745;28;20070;-72
2022/07/16 07:59:50;;;;;;;2.20;1.08;;;20.40;59.70;;;;;;5079189;28;20028;-72
2022/07/16 08:02:15;;;;;;;2.17;1.00;;;20.50;59.50;;;;;;5113540;28;20063;-72
2022/07/16 08:04:41;;;;;;;2.13;1.17;;;20.50;59.20;;;;;;5113856;28;20024;-72
2022/07/16 08:07:07;;;;;;;2.90;1.00;;;20.50;59.00;;;;;;5113687;28;20024;-72
2022/07/16 08:09:32;;;;;;;1.73;0.82;;;20.50;58.40;;;;;;5113680;28;20024;-72
2022/07/16 08:11:58;;;;;;;2.40;0.98;;;20.60;58.10;;;;;;5113767;28;20028;-72
2022/07/16 08:14:24;;;;;;;3.88;1.10;;;20.60;58.10;;;;;;5113543;28;20028;-72
2022/07/16 08:16:50;;;;;;;3.25;1.00;;;20.70;57.30;;;;;;5113605;28;20051;-72
2022/07/16 08:19:15;;;;;;;2.55;0.73;;;20.70;56.60;;;;;;5113693;28;20028;-72
2022/07/16 08:21:41;;;;;;;2.65;0.88;;;20.70;56.00;;;;;;5095712;28;20032;-72
2022/07/16 08:26:51;;;;;;;2.08;0.93;;;20.70;55.00;;;;;;5113753;28;20110;-71
2022/07/16 08:29:17;;;;;;;3.28;1.10;;;20.70;55.10;;;;;;5113360;28;20036;-71
2022/07/16 08:31:45;;;;;;;1.58;0.85;;;20.70;55.00;;;;;;5095604;28;20036;-71
2022/07/16 08:34:11;;;;;;;2.15;0.80;;;20.70;54.50;;;;;;5095631;28;20020;-71
2022/07/16 08:36:36;;;;;;;3.60;1.00;;;20.80;54.60;;;;;;5113345;28;20060;-71
2022/07/16 08:39:03;;;;;;;1.63;0.85;;;20.80;54.90;;;;;;5113416;28;20020;-71
2022/07/16 08:41:31;;;;;;;3.78;1.00;;;20.90;54.50;;;;;;5113319;28;20036;-71
2022/07/16 08:43:58;;;;;;;3.80;0.90;;;21.00;53.10;;;;;;5113210;28;20031;-71
2022/07/16 08:46:26;;;;;;;2.63;0.70;;;21.00;53.40;;;;;;5095407;28;20024;-72
2022/07/16 08:48:53;;;;;;;1.85;0.80;;;21.20;53.00;;;;;;5095552;28;20020;-72
2022/07/16 08:51:30;;;;;;;2.17;0.80;;;21.30;52.50;;;;;;5113258;28;20020;-71
2022/07/16 08:54:00;;;;;;;4.10;0.80;;;21.40;52.20;;;;;;5113296;28;20103;-71
2022/07/16 08:56:28;;;;;;;1.95;0.80;;;21.40;51.20;;;;;;5113201;28;20390;-71
2022/07/16 08:58:54;;;;;;;2.53;0.90;;;21.30;51.40;;;;;;5113202;28;20424;-71
2022/07/16 09:01:19;;;;;;;3.28;0.90;;;21.30;51.80;;;;;;5095174;28;20056;-72
2022/07/16 09:03:45;;;;;;;2.85;0.93;;;21.20;51.60;;;;;;5113060;28;20036;-71
2022/07/16 09:06:11;;;;;;;1.55;0.75;;;21.10;51.50;;;;;;5095316;28;20028;-71
2022/07/16 09:08:37;;;;;;;4.13;0.93;;;21.10;51.10;;;;;;5098910;28;20029;-71
2022/07/16 09:11:20;;;;;;;2.83;0.85;;;21.10;51.60;;;;;;5117066;28;20498;-72
2022/07/16 09:14:08;;;;;;;2.65;0.75;;;21.20;51.50;;;;;;5116952;28;20024;-71
2022/07/16 09:16:37;;;;;;;2.65;0.70;;;21.30;50.60;;;;;;5116844;28;20032;-70
2022/07/16 09:19:12;;;;;;;3.78;0.80;;;21.40;51.10;;;;;;5116829;28;20467;-70
2022/07/16 09:22:10;;;;;;;1.50;0.80;;;21.60;50.80;;;;;;5116930;28;20077;-70
2022/07/16 09:24:52;;;;;;;1.80;0.52;;;21.60;48.40;;;;;;5098692;28;20032;-71
2022/07/16 09:27:26;;;;;;;2.55;0.98;;;21.60;49.30;;;;;;5116814;28;20099;-71
2022/07/16 09:30:03;;;;;;;8.90;0.95;;;21.60;49.90;;;;;;5116473;28;20028;-71
2022/07/16 09:32:39;;;;;;;3.95;1.52;;;21.70;50.30;;;;;;5116569;28;20027;-71
2022/07/16 09:35:11;;;;;;;6.85;1.17;;;21.80;49.80;;;;;;5116691;28;20032;-70
2022/07/16 09:37:52;;;;;;;248.73;19.05;;;21.90;50.40;;;;;;5116463;28;20396;-71
2022/07/16 09:40:45;;;;;;;8.05;1.15;;;22.10;48.80;;;;;;5116401;28;20032;-71
2022/07/16 09:43:13;;;;;;;1.60;0.60;;;22.30;49.00;;;;;;5116270;28;20031;-71
2022/07/16 09:45:44;;;;;;;1.98;0.70;;;22.30;48.30;;;;;;5116290;28;20016;-72
2022/07/16 09:48:36;;;;;;;1.48;0.80;;;22.20;47.40;;;;;;5116277;28;20020;-71
2022/07/16 09:51:21;;;;;;;3.55;0.60;;;22.20;47.30;;;;;;5105128;28;20032;-71
2022/07/16 09:53:48;;;;;;;1.45;0.82;;;22.10;47.40;;;;;;5116177;28;20028;-71
2022/07/16 09:56:20;;;;;;;1.25;0.60;;;22.00;48.10;;;;;;5098127;28;20024;-71
2022/07/16 09:58:48;;;;;;;3.67;0.70;;;22.10;48.00;;;;;;5116082;28;20097;-71
2022/07/16 10:01:15;;;;;;;2.88;0.73;;;22.10;47.50;;;;;;5115817;28;20119;-71
2022/07/16 10:03:41;;;;;;;2.58;0.70;;;22.10;48.40;;;;;;5115903;28;20024;-71
2022/07/16 10:06:07;;;;;;;1.38;0.65;;;22.20;46.20;;;;;;5081384;28;20016;-71
2022/07/16 10:08:33;;;;;;;1.98;0.80;;;22.30;45.70;;;;;;5115869;28;20072;-70
2022/07/16 10:10:58;;;;;;;1.80;0.75;;;22.30;45.80;;;;;;5115820;28;20039;-71
2022/07/16 10:13:26;;;;;;;0.82;0.52;;;22.40;46.20;;;;;;5115790;28;20028;-71
2022/07/16 10:15:52;;;;;;;1.67;0.60;;;22.60;46.20;;;;;;5115719;28;20104;-71
2022/07/16 10:18:33;;;;;;;0.80;0.60;;;22.70;45.80;;;;;;5114897;28;20049;-71
2022/07/16 10:21:09;;;;;;;2.15;0.80;;;22.80;43.30;;;;;;5115615;28;20035;-71
2022/07/16 10:23:36;;;;;;;1.88;0.80;;;22.80;43.10;;;;;;5097558;28;20024;-71
2022/07/16 10:26:20;;;;;;;2.10;0.80;;;22.80;43.20;;;;;;5115530;28;20012;-71
2022/07/16 10:28:54;;;;;;;3.33;0.65;;;22.90;42.10;;;;;;5115550;28;20019;-71
2022/07/16 10:34:38;;;;;;;1.45;0.73;;;23.00;43.00;;;;;;5115648;28;20038;-71
2022/07/16 10:37:06;;;;;;;1.90;0.70;;;23.10;43.00;;;;;;5115362;28;20028;-71
2022/07/16 10:39:32;;;;;;;2.13;1.00;;;23.00;42.90;;;;;;5115237;28;20028;-71
2022/07/16 10:42:03;;;;;;;1.23;0.55;;;23.00;42.50;;;;;;5115165;28;20076;-71
2022/07/16 10:44:48;;;;;;;2.25;0.73;;;23.00;41.70;;;;;;5097258;28;20016;-71
2022/07/16 10:47:15;;;;;;;2.80;0.75;;;23.00;41.60;;;;;;5115169;28;20020;-71
2022/07/16 10:49:41;;;;;;;1.25;0.70;;;23.00;41.80;;;;;;5115069;28;20024;-71
2022/07/16 10:52:15;;;;;;;1.85;0.50;;;23.20;42.60;;;;;;5114972;28;20051;-71
2022/07/16 10:54:50;;;;;;;3.03;0.80;;;23.10;41.50;;;;;;5114986;28;20047;-71
2022/07/16 10:57:16;;;;;;;1.08;0.60;;;23.20;42.20;;;;;;5114924;28;20054;-71
2022/07/16 10:59:46;;;;;;;2.30;0.77;;;23.20;42.10;;;;;;5115031;28;20032;-71
2022/07/16 11:02:13;;;;;;;2.72;0.68;;;23.30;41.90;;;;;;5114643;28;20050;-71
2022/07/16 11:04:41;;;;;;;1.85;0.60;;;23.40;42.00;;;;;;5114800;28;20088;-71
2022/07/16 11:07:12;;;;;;;1.27;0.68;;;23.50;41.00;;;;;;5114739;28;20024;-71
2022/07/16 11:09:40;;;;;;;2.88;0.63;;;23.40;40.90;;;;;;5114710;28;20020;-71
2022/07/16 11:12:18;;;;;;;1.70;0.60;;;23.50;40.50;;;;;;5114785;28;20068;-71
2022/07/16 11:14:46;;;;;;;3.70;1.00;;;23.50;40.30;;;;;;5114600;28;20024;-71
2022/07/16 11:17:13;;;;;;;2.05;0.90;;;23.60;41.20;;;;;;5114516;28;20047;-71
2022/07/16 11:19:44;;;;;;;2.70;0.68;;;23.70;41.70;;;;;;5114496;28;20020;-71
2022/07/16 11:22:11;;;;;;;3.10;0.70;;;23.80;40.00;;;;;;5114372;28;20190;-71
2022/07/16 11:24:47;;;;;;;1.50;0.50;;;23.80;39.50;;;;;;5114398;28;20020;-71
2022/07/16 11:27:13;;;;;;;2.05;0.60;;;23.80;39.90;;;;;;5114393;28;20038;-71
2022/07/16 11:29:39;;;;;;;3.13;0.68;;;23.70;40.50;;;;;;5096184;28;20031;-71
2022/07/16 11:32:05;;;;;;;2.00;0.63;;;23.70;40.00;;;;;;5096327;28;20036;-71
2022/07/16 11:34:35;;;;;;;1.58;0.60;;;23.60;39.90;;;;;;5114210;28;20038;-71
2022/07/16 11:37:01;;;;;;;2.05;0.57;;;23.70;40.50;;;;;;5114168;28;20024;-71
2022/07/16 11:39:28;;;;;;;1.10;0.68;;;23.80;40.30;;;;;;5114144;28;20112;-70
2022/07/16 11:41:55;;;;;;;1.73;0.60;;;23.90;40.60;;;;;;5114041;28;20029;-70
2022/07/16 11:44:41;;;;;;;3.20;0.65;;;24.00;39.80;;;;;;5114063;28;20023;-70
2022/07/16 11:47:09;;;;;;;3.17;0.60;;;24.20;38.60;;;;;;5114078;28;20116;-70
2022/07/16 11:49:40;;;;;;;2.85;0.68;;;24.20;39.00;;;;;;5114007;28;20027;-71
2022/07/16 11:52:16;;;;;;;2.03;0.65;;;24.20;39.60;;;;;;5113991;28;20032;-72
2022/07/16 11:54:42;;;;;;;1.58;0.60;;;24.30;38.90;;;;;;5113920;28;20024;-70
2022/07/16 11:57:11;;;;;;;1.42;0.50;;;24.30;38.70;;;;;;5114025;28;20024;-71
2022/07/16 11:59:48;;;;;;;0.93;0.50;;;24.30;38.00;;;;;;5113804;28;20043;-71
2022/07/16 12:02:17;;;;;;;5.28;1.00;;;24.30;38.40;;;;;;5113463;28;20040;-70
2022/07/16 12:05:03;;;;;;;3.40;0.60;;;24.40;38.60;;;;;;5113719;28;20028;-70
2022/07/16 12:07:30;;;;;;;1.52;0.50;;;24.50;39.20;;;;;;5095624;28;20066;-71
2022/07/16 12:09:59;;;;;;;3.65;0.90;;;24.60;39.10;;;;;;5113712;28;20020;-71
2022/07/16 12:12:30;;;;;;;2.80;0.50;;;24.60;38.30;;;;;;5113627;28;20024;-71
2022/07/16 12:15:12;;;;;;;0.98;0.50;;;24.60;38.60;;;;;;5113737;28;20020;-72
2022/07/16 12:17:42;;;;;;;;;;;24.70;38.00;;;;;;5114054;28;20028;-71
2022/07/16 12:20:18;;;;;;;2.65;0.50;;;24.70;37.50;;;;;;5113701;28;19904;-72
2022/07/16 12:23:08;;;;;;;3.80;0.65;;;24.60;36.90;;;;;;5113677;28;20071;-71
2022/07/16 12:25:39;;;;;;;1.48;0.60;;;24.60;36.40;;;;;;5095624;28;20088;-72
2022/07/16 12:28:19;;;;;;;1.05;0.50;;;24.70;38.00;;;;;;5113467;28;20036;-71
2022/07/16 12:30:52;;;;;;;3.33;0.57;;;24.70;35.60;;;;;;5113497;28;20012;-71
2022/07/16 12:33:24;;;;;;;1.65;0.70;;;24.70;37.00;;;;;;5113608;28;20032;-71
2022/07/16 12:36:00;;;;;;;2.05;0.82;;;24.90;36.40;;;;;;5113444;28;20028;-72
2022/07/16 12:38:51;;;;;;;1.88;0.50;;;25.00;36.60;;;;;;5113394;28;20035;-71
2022/07/16 12:41:36;;;;;;;3.10;0.60;;;25.00;36.30;;;;;;5095510;28;20028;-71
2022/07/16 12:44:08;;;;;;;2.85;0.57;;;24.90;36.10;;;;;;5117435;28;20043;-71
2022/07/16 12:46:40;;;;;;;1.90;0.47;;;24.90;37.30;;;;;;5117503;28;20020;-72
2022/07/16 12:49:13;;;;;;;2.05;0.60;;;25.00;37.80;;;;;;5117496;28;20016;-71
2022/07/16 12:51:45;;;;;;;1.30;0.40;;;25.00;37.00;;;;;;5117535;28;20020;-72
2022/07/16 12:54:12;;;;;;;1.42;0.60;;;25.10;35.80;;;;;;5117382;28;20069;-72
2022/07/16 12:59:23;;;;;;;1.98;0.60;;;25.10;36.60;;;;;;5117358;28;20042;-72
2022/07/16 13:01:50;;;;;;;4.35;0.90;;;25.20;35.50;;;;;;5116824;28;20043;-72
2022/07/16 13:04:17;;;;;;;2.30;0.75;;;25.20;35.50;;;;;;5117135;28;20029;-71